Time;durP1;ratioP1;P1;durP2;ratioP2;P2;SDS_P1;SDS_P2;PMS_P1;PMS_P2;Temp;Humidity;BMP_temperature;BMP_pressure;BME280_temperature;BME280_humidity;BME280_pressure;Samples;Min_cycle;Max_cycle;Signal;HPM_P1;HPM_P2
2022/12/16 00:02:14;;;;;;;;;;;;;;;;;;5033193;28;19960;-75
2022/12/16 00:04:39;;;;;;;;;;;;;;;;;;5032835;28;19913;-74
2022/12/16 00:07:05;;;;;;;;;;;;;;;;;;5032734;28;20400;-75
2022/12/16 00:09:31;;;;;;;;;;;;;;;;;;5033494;28;19909;-74
2022/12/16 00:11:57;;;;;;;;;;;;;;;;;;5033432;28;20520;-74
2022/12/16 00:14:23;;;;;;;;;;;;;;;;;;5033138;28;19917;-74
2022/12/16 00:16:49;;;;;;;;;;;;;;;;;;5032809;28;20413;-74
2022/12/16 00:19:15;;;;;;;;;;;;;;;;;;5033104;28;20264;-74
2022/12/16 00:21:41;;;;;;;;;;;;;;;;;;5033022;28;19913;-73
2022/12/16 00:24:07;;;;;;;;;;;;;;;;;;5033385;28;20357;-74
2022/12/16 00:26:33;;;;;;;;;;;;;;;;;;5033372;28;20374;-75
2022/12/16 00:28:58;;;;;;;;;;;;;;;;;;5033046;28;20006;-74
2022/12/16 00:31:24;;;;;;;;;;;;;;;;;;5032534;28;19916;-75
2022/12/16 00:33:51;;;;;;;;;;;;;;;;;;5032579;28;19920;-75
2022/12/16 00:36:17;;;;;;;;;;;;;;;;;;5032814;28;19917;-74
2022/12/16 00:38:43;;;;;;;;;;;;;;;;;;5032459;28;19932;-74
2022/12/16 00:41:09;;;;;;;;;;;;;;;;;;5032858;28;19987;-75
2022/12/16 00:43:35;;;;;;;;;;;;;;;;;;5032475;28;20101;-74
2022/12/16 00:46:01;;;;;;;;;;;;;;;;;;5033002;28;19913;-75
2022/12/16 00:48:27;;;;;;;;;;;;;;;;;;5032447;28;19909;-75
2022/12/16 00:50:52;;;;;;;;;;;;;;;;;;5032460;28;19944;-74
2022/12/16 00:53:18;;;;;;;;;;;;;;;;;;5033005;28;19909;-74
2022/12/16 00:55:45;;;;;;;;;;;;;;;;;;5032371;28;19917;-74
2022/12/16 00:58:11;;;;;;;;;;;;;;;;;;5032565;28;19913;-73
2022/12/16 01:00:37;;;;;;;;;;;;;;;;;;5032628;28;20400;-74
2022/12/16 01:03:03;;;;;;;;;;;;;;;;;;5025701;28;19916;-74
2022/12/16 01:05:29;;;;;;;;;;;;;;;;;;5032907;28;19909;-73
2022/12/16 01:07:55;;;;;;;;;;;;;;;;;;5025571;28;19914;-74
2022/12/16 01:10:21;;;;;;;;;;;;;;;;;;5030374;28;19939;-74
2022/12/16 01:12:47;;;;;;;;;;;;;;;;;;5032178;28;20384;-73
2022/12/16 01:15:13;;;;;;;;;;;;;;;;;;5031709;28;19921;-74
2022/12/16 01:17:39;;;;;;;;;;;;;;;;;;5031475;28;19909;-73
2022/12/16 01:20:05;;;;;;;;;;;;;;;;;;5031897;28;19909;-73
2022/12/16 01:22:31;;;;;;;;;;;;;;;;;;5031663;28;19917;-73
2022/12/16 01:24:57;;;;;;;;;;;;;;;;;;5032072;28;20036;-73
2022/12/16 01:27:23;;;;;;;;;;;;;;;;;;5031670;28;19914;-74
2022/12/16 01:29:49;;;;;;;;;;;;;;;;;;5031861;28;19917;-73
2022/12/16 01:32:15;;;;;;;;;;;;;;;;;;5029924;28;20374;-73
2022/12/16 01:34:41;;;;;;;;;;;;;;;;;;5031369;28;20003;-73
2022/12/16 01:37:06;;;;;;;;;;;;;;;;;;5031866;28;19917;-74
2022/12/16 01:39:32;;;;;;;;;;;;;;;;;;5026130;28;20005;-73
2022/12/16 01:41:58;;;;;;;;;;;;;;;;;;5030626;28;19913;-74
2022/12/16 01:44:25;;;;;;;;;;;;;;;;;;5031204;28;19913;-73
2022/12/16 01:46:51;;;;;;;;;;;;;;;;;;5031168;28;19913;-73
2022/12/16 01:49:16;;;;;;;;;;;;;;;;;;5031710;28;19915;-74
2022/12/16 01:51:42;;;;;;;;;;;;;;;;;;5031377;28;20375;-74
2022/12/16 01:54:08;;;;;;;;;;;;;;;;;;5031717;28;19913;-73
2022/12/16 01:56:34;;;;;;;;;;;;;;;;;;5031124;28;20421;-73
2022/12/16 01:59:00;;;;;;;;;;;;;;;;;;5030902;28;19915;-73
2022/12/16 02:01:26;;;;;;;;;;;;;;;;;;5031212;28;20419;-72
2022/12/16 02:03:52;;;;;;;;;;;;;;;;;;5030605;28;19913;-73
2022/12/16 02:06:18;;;;;;;;;;;;;;;;;;5031394;28;19909;-72
2022/12/16 02:08:44;;;;;;;;;;;;;;;;;;5030870;28;19960;-73
2022/12/16 02:11:09;;;;;;;;;;;;;;;;;;5030452;28;20475;-72
2022/12/16 02:13:35;;;;;;;;;;;;;;;;;;5030445;28;19959;-73
2022/12/16 02:16:01;;;;;;;;;;;;;;;;;;5030466;28;20454;-72
2022/12/16 02:18:27;;;;;;;;;;;;;;;;;;5031201;28;19909;-72
2022/12/16 02:20:53;;;;;;;;;;;;;;;;;;5029822;28;19917;-72
2022/12/16 02:23:19;;;;;;;;;;;;;;;;;;5024660;28;19913;-74
2022/12/16 02:25:45;;;;;;;;;;;;;;;;;;5031006;28;20003;-71
2022/12/16 02:28:11;;;;;;;;;;;;;;;;;;5030392;28;19913;-72
2022/12/16 02:30:36;;;;;;;;;;;;;;;;;;5030596;28;19916;-73
2022/12/16 02:33:02;;;;;;;;;;;;;;;;;;5030352;28;20454;-74
2022/12/16 02:35:28;;;;;;;;;;;;;;;;;;5030557;28;19917;-73
2022/12/16 02:37:54;;;;;;;;;;;;;;;;;;5030944;28;20566;-73
2022/12/16 02:40:20;;;;;;;;;;;;;;;;;;5030554;28;20607;-72
2022/12/16 02:42:46;;;;;;;;;;;;;;;;;;5030108;28;19916;-73
2022/12/16 02:45:12;;;;;;;;;;;;;;;;;;5030341;28;20446;-73
2022/12/16 02:47:38;;;;;;;;;;;;;;;;;;5030725;28;19920;-74
2022/12/16 02:50:04;;;;;;;;;;;;;;;;;;5030158;28;19909;-73
2022/12/16 02:52:29;;;;;;;;;;;;;;;;;;5029756;28;19956;-74
2022/12/16 02:54:55;;;;;;;;;;;;;;;;;;5029830;28;19967;-74
2022/12/16 02:57:21;;;;;;;;;;;;;;;;;;5029752;28;19960;-74
2022/12/16 02:59:47;;;;;;;;;;;;;;;;;;5029576;28;19919;-73
2022/12/16 03:02:13;;;;;;;;;;;;;;;;;;5030120;28;20413;-74
2022/12/16 03:04:39;;;;;;;;;;;;;;;;;;5030040;28;19910;-73
2022/12/16 03:07:05;;;;;;;;;;;;;;;;;;5029811;28;20297;-75
2022/12/16 03:09:31;;;;;;;;;;;;;;;;;;5029353;28;19935;-74
2022/12/16 03:11:57;;;;;;;;;;;;;;;;;;5029332;28;20011;-74
2022/12/16 03:14:23;;;;;;;;;;;;;;;;;;5029321;28;19982;-74
2022/12/16 03:16:48;;;;;;;;;;;;;;;;;;5029978;28;19932;-73
2022/12/16 03:19:14;;;;;;;;;;;;;;;;;;5029214;28;20062;-74
2022/12/16 03:21:40;;;;;;;;;;;;;;;;;;5029510;28;20339;-73
2022/12/16 03:24:06;;;;;;;;;;;;;;;;;;5029951;28;19909;-74
2022/12/16 03:26:33;;;;;;;;;;;;;;;;;;5029680;28;19913;-73
2022/12/16 03:28:59;;;;;;;;;;;;;;;;;;5023264;28;20004;-73
2022/12/16 03:31:25;;;;;;;;;;;;;;;;;;5029450;28;20405;-73
2022/12/16 03:33:51;;;;;;;;;;;;;;;;;;5028852;28;19976;-73
2022/12/16 03:36:17;;;;;;;;;;;;;;;;;;5029147;28;19959;-72
2022/12/16 03:38:43;;;;;;;;;;;;;;;;;;5029002;28;19913;-72
2022/12/16 03:41:09;;;;;;;;;;;;;;;;;;5029171;28;19909;-73
2022/12/16 03:43:35;;;;;;;;;;;;;;;;;;5029497;28;19913;-72
2022/12/16 03:46:01;;;;;;;;;;;;;;;;;;5030014;28;19928;-73
2022/12/16 03:48:27;;;;;;;;;;;;;;;;;;5029391;28;19919;-73
2022/12/16 03:50:52;;;;;;;;;;;;;;;;;;5029572;28;19917;-74
2022/12/16 03:53:18;;;;;;;;;;;;;;;;;;5030062;28;19968;-74
2022/12/16 03:55:44;;;;;;;;;;;;;;;;;;5028929;28;19963;-72
2022/12/16 03:58:10;;;;;;;;;;;;;;;;;;5029145;28;19913;-72
2022/12/16 04:00:36;;;;;;;;;;;;;;;;;;5029061;28;19920;-72
2022/12/16 04:03:02;;;;;;;;;;;;;;;;;;5029964;28;20381;-73
2022/12/16 04:05:28;;;;;;;;;;;;;;;;;;5029508;28;19909;-72
2022/12/16 04:07:54;;;;;;;;;;;;;;;;;;5029082;28;20495;-71
2022/12/16 04:24:17;;;;;;;;;;;;;;;;;;5029035;28;19913;-73
2022/12/16 04:24:34;;;;;;;;;;;;;;;;;;4987357;28;20412;-73
2022/12/16 04:34:24;;;;;;;;;;;;;;;;;;4987145;28;19964;-73
